Aviation Digital Data Service (ADDS)

Output produced by TAFs form (0148 UTC 22 November 2017)
found at http://www.aviationweather.gov/adds/tafs/
 
METAR text: RJDC 220100Z 19007KT 8000 -RA FEW010 SCT015 BKN035 11/10 Q1020
Conditions at: RJDC (YAMAGUCHI/UBE AR, JP) observed 0100 UTC 22 November 2017
Temperature: 11.0°C (52°F)
Dewpoint: 10.0°C (50°F) [RH = 94%]
Pressure (altimeter): 30.12 inches Hg (1020.0 mb)
Winds: from the S (190 degrees) at 8 MPH (7 knots; 3.6 m/s)
Visibility: 5 miles (8 km)
Ceiling: 3500 feet AGL
Clouds: few clouds at 1000 feet AGL
scattered clouds at 1500 feet AGL
broken clouds at 3500 feet AGL
Weather: -RA  (light rain)